Time;durP1;ratioP1;P1;durP2;ratioP2;P2;SDS_P1;SDS_P2;PMS_P1;PMS_P2;Temp;Humidity;BMP_temperature;BMP_pressure;BME280_temperature;BME280_humidity;BME280_pressure;Samples;Min_cycle;Max_cycle;Signal;HPM_P1;HPM_P2
2022/06/02 00:00:58;;;;;;;11.20;5.80;;;;;;;21.66;100.00;99443.25;5090982;28;20699;-70
2022/06/02 00:03:31;;;;;;;6.80;6.20;;;;;;;21.61;100.00;99430.38;5090401;28;20205;-68
2022/06/02 00:06:10;;;;;;;7.47;6.78;;;;;;;21.63;100.00;99444.31;5090238;28;20286;-66
2022/06/02 00:08:53;;;;;;;6.57;5.97;;;;;;;21.55;100.00;99438.75;5090263;28;20691;-65
2022/06/02 00:11:35;;;;;;;6.63;5.75;;;;;;;21.51;100.00;99437.31;5091722;28;20801;-66
2022/06/02 00:14:10;;;;;;;10.80;6.38;;;;;;;21.41;100.00;99420.47;5094134;28;20201;-66
2022/06/02 00:16:50;;;;;;;7.07;6.40;;;;;;;21.47;100.00;99433.19;5091880;28;20191;-64
2022/06/02 00:19:30;;;;;;;6.72;6.18;;;;;;;21.49;100.00;99433.94;5093003;28;20199;-66
2022/06/02 00:22:01;;;;;;;7.57;6.00;;;;;;;21.47;100.00;99430.56;5093917;28;20218;-66
2022/06/02 00:24:37;;;;;;;6.45;5.80;;;;;;;21.46;100.00;99435.94;5094312;28;20665;-65
2022/06/02 00:27:14;;;;;;;5.82;5.28;;;;;;;21.44;100.00;99432.59;5094468;28;20203;-64
2022/06/02 00:29:48;;;;;;;9.23;6.65;;;;;;;21.33;100.00;99430.75;5093976;28;20198;-64
2022/06/02 00:32:22;;;;;;;7.22;6.22;;;;;;;21.29;100.00;99435.41;5093096;28;20205;-64
2022/06/02 00:34:56;;;;;;;8.45;6.25;;;;;;;21.18;100.00;99442.41;5094114;28;20738;-64
2022/06/02 00:37:32;;;;;;;6.47;5.97;;;;;;;21.15;100.00;99447.91;5093591;28;20195;-63
2022/06/02 00:40:02;;;;;;;7.65;5.60;;;;;;;21.14;100.00;99439.16;5093692;28;20318;-63
2022/06/02 00:42:50;;;;;;;9.23;5.57;;;;;;;21.00;100.00;99426.97;5093336;28;20223;-63
2022/06/02 00:45:19;;;;;;;7.93;6.00;;;;;;;21.13;100.00;99434.81;5093380;28;20292;-63
2022/06/02 00:47:54;;;;;;;5.82;5.35;;;;;;;21.15;100.00;99438.19;5093703;28;20199;-64
2022/06/02 00:50:54;;;;;;;8.98;6.60;;;;;;;21.21;100.00;99436.94;5093347;28;20203;-63
2022/06/02 00:53:34;;;;;;;10.43;7.20;;;;;;;21.00;100.00;99416.41;5089985;28;20234;-66
2022/06/02 00:59:11;;;;;;;6.43;5.90;;;;;;;20.99;100.00;99441.09;5093845;28;20235;-69
2022/06/02 01:01:38;;;;;;;6.68;5.97;;;;;;;20.87;100.00;99415.63;5093367;28;20222;-68
2022/06/02 01:04:11;;;;;;;9.98;6.07;;;;;;;20.97;100.00;99427.19;5093221;28;20279;-69
2022/06/02 01:07:03;;;;;;;7.22;5.55;;;;;;;20.98;100.00;99420.97;5093415;28;20195;-68
2022/06/02 01:09:54;;;;;;;5.70;5.30;;;;;;;20.91;100.00;99424.16;5092933;28;20676;-69
2022/06/02 01:12:53;;;;;;;6.40;5.80;;;;;;;20.91;100.00;99424.16;5093127;28;20586;-67
2022/06/02 01:15:35;;;;;;;5.85;5.15;;;;;;;20.91;100.00;99419.72;5081454;28;20199;-68
2022/06/02 01:18:13;;;;;;;8.10;5.55;;;;;;;20.94;100.00;99413.38;5093005;28;20195;-68
2022/06/02 01:20:51;;;;;;;6.20;5.20;;;;;;;20.94;100.00;99416.88;5093235;28;20195;-68
2022/06/02 01:23:50;;;;;;;7.72;5.60;;;;;;;20.92;100.00;99416.13;5092699;28;20203;-67
2022/06/02 01:26:40;;;;;;;8.25;5.35;;;;;;;20.89;100.00;99407.59;5092583;28;20287;-68
2022/06/02 01:29:29;;;;;;;6.82;6.28;;;;;;;20.81;100.00;99415.22;5062343;28;20282;-68
2022/06/02 01:32:06;;;;;;;9.73;5.70;;;;;;;20.90;100.00;99412.75;5092943;28;20731;-67
2022/06/02 01:34:45;;;;;;;6.47;5.88;;;;;;;20.93;100.00;99409.91;5092630;28;20705;-67
2022/06/02 01:37:28;;;;;;;10.05;5.85;;;;;;;20.87;100.00;99413.00;5092629;28;20191;-69
2022/06/02 01:40:10;;;;;;;8.55;6.30;;;;;;;20.85;100.00;99409.63;5092689;28;20688;-70
2022/06/02 01:42:50;;;;;;;7.35;5.97;;;;;;;20.92;100.00;99405.56;5092220;28;20233;-67
2022/06/02 01:45:30;;;;;;;5.95;5.30;;;;;;;20.83;100.00;99408.88;5092266;28;20241;-68
2022/06/02 01:48:08;;;;;;;5.45;5.05;;;;;;;20.76;100.00;99407.66;5092270;28;20201;-63
2022/06/02 01:50:47;;;;;;;6.57;5.95;;;;;;;20.81;100.00;99407.31;5092239;28;20202;-64
2022/06/02 01:53:33;;;;;;;7.82;5.38;;;;;;;20.79;100.00;99406.56;5092074;28;20592;-63
2022/06/02 01:56:18;;;;;;;8.38;5.45;;;;;;;20.79;100.00;99415.31;5092362;28;20217;-65
2022/06/02 01:58:58;;;;;;;5.95;5.55;;;;;;;20.73;100.00;99407.03;5092185;28;20206;-66
2022/06/02 02:01:34;;;;;;;6.35;5.47;;;;;;;20.60;100.00;99414.97;5092081;28;20703;-66
2022/06/02 02:04:20;;;;;;;5.72;5.22;;;;;;;20.56;100.00;99411.69;5092063;28;20197;-66
2022/06/02 02:06:57;;;;;;;7.32;5.00;;;;;;;20.64;100.00;99411.19;5092496;28;20205;-65
2022/06/02 02:09:32;;;;;;;6.15;5.57;;;;;;;20.54;100.00;99415.44;5092045;28;20195;-66
2022/06/02 02:12:01;;;;;;;7.45;5.55;;;;;;;20.49;100.00;99412.25;5092014;28;20199;-68
2022/06/02 02:15:05;;;;;;;7.57;5.53;;;;;;;20.31;100.00;99396.75;5092155;28;20610;-67
2022/06/02 02:17:48;;;;;;;7.20;5.82;;;;;;;20.37;100.00;99399.94;5029244;28;20200;-64
2022/06/02 02:20:27;;;;;;;6.45;5.43;;;;;;;20.45;100.00;99416.91;5087145;28;20698;-66
2022/06/02 02:23:02;;;;;;;6.55;5.95;;;;;;;20.51;100.00;99413.84;5090849;28;20215;-69
2022/06/02 02:25:39;;;;;;;6.07;5.15;;;;;;;20.50;100.00;99417.44;5090441;28;20282;-66
2022/06/02 02:28:16;;;;;;;5.47;5.07;;;;;;;20.40;100.00;99413.75;5089885;28;20199;-68
2022/06/02 02:31:06;;;;;;;7.65;5.68;;;;;;;20.32;100.00;99418.69;5090515;28;20222;-68
2022/06/02 02:33:44;;;;;;;8.80;5.97;;;;;;;20.28;100.00;99415.44;5090349;28;20287;-68
2022/06/02 02:36:27;;;;;;;6.05;4.85;;;;;;;20.27;100.00;99424.28;5090155;28;20202;-67
2022/06/02 02:39:03;;;;;;;5.68;5.18;;;;;;;20.21;100.00;99427.34;5076776;28;20216;-60
2022/06/02 02:41:38;;;;;;;6.88;5.43;;;;;;;20.11;100.00;99421.03;5091275;28;20293;-60
2022/06/02 02:44:13;;;;;;;6.15;5.50;;;;;;;20.04;100.00;99414.50;5091351;28;20601;-60
2022/06/02 02:46:53;;;;;;;7.15;5.40;;;;;;;20.00;100.00;99413.03;5091111;28;20624;-61
2022/06/02 02:49:26;;;;;;;8.15;5.07;;;;;;;19.93;100.00;99419.66;5090919;28;20210;-60
2022/06/02 02:52:01;;;;;;;5.90;5.35;;;;;;;19.95;100.00;99412.50;5091295;28;20393;-59
2022/06/02 02:54:34;;;;;;;12.15;5.22;;;;;;;20.01;100.00;99422.63;5088519;28;20202;-59
2022/06/02 02:57:09;;;;;;;6.65;5.18;;;;;;;20.01;100.00;99419.97;5084323;28;20199;-59
2022/06/02 02:59:42;;;;;;;9.40;5.40;;;;;;;20.04;100.00;99424.19;5089647;28;20201;-59
2022/06/02 03:02:23;;;;;;;6.97;5.20;;;;;;;19.99;100.00;99424.50;5088789;28;20297;-61
2022/06/02 03:04:56;;;;;;;8.02;4.97;;;;;;;19.95;100.00;99399.34;5088938;28;20274;-57
2022/06/02 03:07:25;;;;;;;9.73;4.93;;;;;;;20.17;100.00;99428.53;5084322;28;20283;-69
2022/06/02 03:10:04;;;;;;;5.32;4.88;;;;;;;20.25;100.00;99431.47;5087699;28;20278;-67
2022/06/02 03:12:44;;;;;;;5.85;4.82;;;;;;;20.37;100.00;99431.59;5084020;28;21209;-67
2022/06/02 03:15:23;;;;;;;6.95;4.55;;;;;;;20.43;100.00;99428.53;5088483;28;20231;-66
2022/06/02 03:18:10;;;;;;;5.90;4.82;;;;;;;20.53;100.00;99427.78;5088539;28;20186;-66
2022/06/02 03:20:51;;;;;;;5.10;4.70;;;;;;;20.61;100.00;99416.66;5086814;28;20578;-66
2022/06/02 03:23:37;;;;;;;8.70;5.28;;;;;;;20.66;100.00;99417.16;5086818;28;20218;-59
2022/06/02 03:26:08;;;;;;;7.00;5.30;;;;;;;20.73;100.00;99422.84;5087256;28;20650;-59
2022/06/02 03:28:42;;;;;;;8.95;5.20;;;;;;;20.75;100.00;99423.59;5083300;28;20227;-66
2022/06/02 03:31:15;;;;;;;6.07;5.15;;;;;;;20.80;100.00;99438.13;5088891;28;20583;-66
2022/06/02 03:34:00;;;;;;;7.78;5.07;;;;;;;20.79;100.00;99441.72;5089093;28;20193;-66
2022/06/02 03:36:43;;;;;;;5.47;4.97;;;;;;;20.86;100.00;99432.41;5088778;28;20335;-67
2022/06/02 03:39:22;;;;;;;5.82;5.20;;;;;;;21.07;99.57;99439.72;5086237;28;20202;-67
2022/06/02 03:42:04;;;;;;;7.60;5.18;;;;;;;21.12;98.64;99442.84;5089099;28;20198;-61
2022/06/02 03:44:44;;;;;;;6.65;5.30;;;;;;;21.17;98.63;99446.00;5086344;28;20197;-60
2022/06/02 03:47:22;;;;;;;6.65;5.63;;;;;;;21.29;98.52;99450.41;5082459;28;20237;-66
2022/06/02 03:50:02;;;;;;;6.57;5.88;;;;;;;22.03;94.47;99441.28;5085816;28;20210;-59
2022/06/02 03:52:50;;;;;;;9.05;5.30;;;;;;;23.85;82.35;99452.94;5075537;28;20203;-60
2022/06/02 03:55:33;;;;;;;9.40;5.30;;;;;;;25.73;70.17;99461.13;5070966;28;20720;-67
2022/06/02 03:58:17;;;;;;;11.23;5.47;;;;;;;27.67;60.64;99467.22;5069845;28;20200;-68
2022/06/02 04:00:48;;;;;;;11.07;5.22;;;;;;;29.16;53.75;99465.88;5081400;28;20560;-68
2022/06/02 04:03:31;;;;;;;6.22;5.43;;;;;;;30.53;49.32;99468.72;5088869;28;20741;-67
2022/06/02 04:06:10;;;;;;;6.22;4.63;;;;;;;31.71;45.33;99475.63;5089562;28;20193;-68
2022/06/02 04:08:53;;;;;;;6.15;5.10;;;;;;;32.21;43.71;99466.94;5086017;28;20202;-68
2022/06/02 04:14:38;;;;;;;6.25;5.03;;;;;;;33.98;38.41;99477.31;5089757;28;20202;-61
2022/06/02 04:17:16;;;;;;;5.25;4.70;;;;;;;34.69;37.13;99478.81;5089237;28;20191;-61
2022/06/02 04:23:03;;;;;;;5.70;5.15;;;;;;;35.66;34.82;99471.28;5087397;28;20729;-61
2022/06/02 04:25:45;;;;;;;5.35;4.65;;;;;;;35.92;34.72;99483.13;5088681;28;20192;-62
2022/06/02 04:28:21;;;;;;;9.48;4.90;;;;;;;36.12;34.31;99475.81;5087368;28;20191;-63
2022/06/02 04:30:59;;;;;;;6.28;4.40;;;;;;;36.49;33.62;99479.75;5088574;28;20591;-64
2022/06/02 04:33:33;;;;;;;5.38;4.88;;;;;;;37.36;31.96;99481.09;5088331;28;20607;-63
2022/06/02 04:36:12;;;;;;;12.38;5.30;;;;;;;38.20;30.84;99474.41;5088378;28;20238;-63
2022/06/02 04:38:57;;;;;;;6.82;5.13;;;;;;;38.58;30.72;99485.91;5089015;28;20635;-64
2022/06/02 04:41:33;;;;;;;7.28;5.55;;;;;;;38.00;31.20;99480.00;5089205;28;20700;-64
2022/06/02 04:44:11;;;;;;;8.23;4.82;;;;;;;38.38;30.29;99477.13;5089451;28;20222;-64
2022/06/02 04:46:49;;;;;;;6.35;4.70;;;;;;;38.21;30.91;99476.06;5076707;28;20235;-64
2022/06/02 04:49:27;;;;;;;8.18;4.85;;;;;;;38.47;30.25;99483.94;5069632;28;20242;-64
2022/06/02 04:52:05;;;;;;;8.82;5.00;;;;;;;38.97;29.43;99486.50;5089080;28;20230;-64
2022/06/02 04:54:41;;;;;;;7.55;5.47;;;;;;;38.54;30.31;99482.00;5088462;28;20233;-62
2022/06/02 04:57:18;;;;;;;5.55;5.05;;;;;;;38.71;29.64;99482.22;5090161;28;20254;-62
2022/06/02 05:00:00;;;;;;;7.47;5.70;;;;;;;38.60;30.00;99491.94;5092866;28;20612;-61
2022/06/02 05:02:35;;;;;;;10.23;5.53;;;;;;;38.82;30.35;99493.16;5093180;28;20218;-67
2022/06/02 05:05:12;;;;;;;7.22;4.70;;;;;;;39.13;29.44;99488.59;5092985;28;20293;-67
2022/06/02 05:08:03;;;;;;;5.80;5.30;;;;;;;39.25;29.38;99491.34;5093160;28;20197;-69
2022/06/02 05:10:40;;;;;;;9.05;5.32;;;;;;;39.46;28.94;99491.69;5093117;28;20199;-68
2022/06/02 05:13:17;;;;;;;5.43;4.80;;;;;;;39.65;28.05;99491.59;5092762;28;20198;-68
2022/06/02 05:16:00;;;;;;;5.53;4.63;;;;;;;39.75;28.25;99498.13;5092958;28;20203;-68
2022/06/02 05:18:46;;;;;;;7.25;5.22;;;;;;;39.91;27.76;99500.19;5093014;28;20292;-68
2022/06/02 05:21:29;;;;;;;8.45;5.10;;;;;;;39.48;28.47;99492.28;5092806;28;20195;-68
2022/06/02 05:24:23;;;;;;;5.50;5.00;;;;;;;39.15;28.63;99489.19;5092999;28;20218;-68
2022/06/02 05:27:35;;;;;;;5.97;4.93;;;;;;;39.14;28.90;99488.38;5093049;28;20195;-67
2022/06/02 05:30:36;;;;;;;6.93;5.18;;;;;;;39.95;28.01;99488.84;5092479;28;20302;-67
2022/06/02 05:33:25;;;;;;;7.75;4.88;;;;;;;39.79;27.93;99493.06;5092934;28;20691;-63
2022/06/02 05:36:26;;;;;;;8.55;5.03;;;;;;;40.54;27.00;99499.47;5092716;28;20705;-63
2022/06/02 05:39:13;;;;;;;9.05;4.72;;;;;;;40.98;26.47;99503.41;5092821;28;20202;-66
2022/06/02 05:41:55;;;;;;;11.15;5.00;;;;;;;40.56;27.19;99504.69;5092810;28;20706;-68
2022/06/02 05:44:33;;;;;;;6.85;4.22;;;;;;;39.62;28.16;99500.25;5092399;28;20767;-66
2022/06/02 05:47:11;;;;;;;5.93;4.32;;;;;;;39.17;29.23;99495.19;5091998;28;20222;-67
2022/06/02 05:49:50;;;;;;;7.05;4.68;;;;;;;39.65;28.09;99499.75;5092366;28;20316;-66
2022/06/02 05:52:26;;;;;;;7.25;4.78;;;;;;;38.88;29.09;99493.28;5090802;28;20191;-68
2022/06/02 05:55:17;;;;;;;6.60;4.75;;;;;;;38.26;30.03;99497.91;5090780;28;20202;-66
2022/06/02 05:57:51;;;;;;;12.68;4.72;;;;;;;38.21;30.39;99501.28;5090056;28;20194;-66
2022/06/02 06:00:29;;;;;;;9.57;4.70;;;;;;;38.44;30.28;99504.19;5088985;28;20202;-67
2022/06/02 06:03:25;;;;;;;6.47;4.78;;;;;;;38.42;30.44;99502.75;5088725;28;20604;-68
2022/06/02 06:05:58;;;;;;;8.48;4.70;;;;;;;37.91;30.65;99495.72;5088304;28;20273;-66
2022/06/02 06:08:41;;;;;;;9.20;5.15;;;;;;;37.46;31.71;99472.47;5089614;28;20199;-65
2022/06/02 06:11:21;;;;;;;7.60;5.10;;;;;;;37.97;30.54;99485.84;5090482;28;20222;-62
2022/06/02 06:14:14;;;;;;;10.32;5.40;;;;;;;38.36;30.86;99492.81;5090365;28;20209;-66
2022/06/02 06:16:47;;;;;;;5.75;4.53;;;;;;;38.40;30.05;99496.72;5089855;28;20218;-67
2022/06/02 06:19:40;;;;;;;6.97;4.55;;;;;;;38.41;30.54;99484.81;5088484;28;20205;-66
2022/06/02 06:22:35;;;;;;;8.85;4.47;;;;;;;38.29;30.27;99492.84;5091609;28;20213;-66
2022/06/02 06:25:18;;;;;;;10.05;4.50;;;;;;;39.00;29.48;99495.03;5091689;28;20205;-66
2022/06/02 06:27:58;;;;;;;12.27;4.82;;;;;;;38.84;29.92;99491.00;5091524;28;20644;-66
2022/06/02 06:30:35;;;;;;;12.30;4.85;;;;;;;38.47;30.02;99490.19;5091388;28;20199;-66
2022/06/02 06:33:14;;;;;;;13.82;4.70;;;;;;;38.44;29.96;99484.38;5091585;28;20306;-67
2022/06/02 06:36:00;;;;;;;7.05;4.97;;;;;;;37.98;30.57;99484.78;5091408;28;20191;-66
2022/06/02 06:38:56;;;;;;;13.63;5.60;;;;;;;38.20;30.03;99466.25;5091309;28;20592;-66
2022/06/02 06:41:42;;;;;;;5.45;4.95;;;;;;;37.51;30.84;99483.47;5091496;28;20282;-67
2022/06/02 06:44:17;;;;;;;5.25;4.75;;;;;;;36.56;32.86;99477.88;5091178;28;20305;-66
2022/06/02 06:46:56;;;;;;;11.07;4.93;;;;;;;36.83;32.71;99478.63;5091091;28;20233;-66
2022/06/02 06:49:37;;;;;;;6.78;4.72;;;;;;;37.07;32.39;99471.63;5091288;28;20210;-66
2022/06/02 06:52:33;;;;;;;9.27;4.75;;;;;;;36.06;33.85;99478.53;5091382;28;20191;-66
2022/06/02 06:55:11;;;;;;;7.05;6.10;;;;;;;35.95;33.61;99472.75;5091283;28;20199;-66
2022/06/02 06:57:48;;;;;;;5.35;4.85;;;;;;;36.23;32.87;99471.72;5090925;28;20248;-66
2022/06/02 07:00:22;;;;;;;5.15;4.80;;;;;;;35.95;33.71;99472.75;5090840;28;20201;-66
2022/06/02 07:03:05;;;;;;;6.25;4.55;;;;;;;35.62;34.08;99466.47;5090956;28;20706;-64
2022/06/02 07:05:38;;;;;;;7.68;5.15;;;;;;;35.79;34.14;99473.16;5090893;28;20701;-66
2022/06/02 07:08:15;;;;;;;4.25;4.05;;;;;;;35.20;35.10;99476.56;5090850;28;20202;-61
2022/06/02 07:10:50;;;;;;;9.57;4.65;;;;;;;35.56;35.30;99472.69;5091202;28;20675;-61
2022/06/02 07:13:26;;;;;;;7.18;5.00;;;;;;;36.10;34.41;99474.41;5090325;28;20273;-55
2022/06/02 07:15:59;;;;;;;8.23;5.07;;;;;;;36.14;34.33;99476.44;5090334;28;20593;-64
2022/06/02 07:18:46;;;;;;;7.32;5.00;;;;;;;36.62;33.85;99478.88;5090380;28;20203;-65
2022/06/02 07:21:25;;;;;;;10.65;4.93;;;;;;;36.37;33.94;99459.81;5090499;28;20195;-68
2022/06/02 07:24:03;;;;;;;9.93;4.88;;;;;;;36.05;34.34;99485.00;5090580;28;20223;-68
2022/06/02 07:26:42;;;;;;;6.13;4.97;;;;;;;36.34;34.04;99476.47;5090251;28;20198;-69
2022/06/02 07:29:18;;;;;;;5.05;4.20;;;;;;;36.19;34.28;99483.94;5090762;28;20256;-68
2022/06/02 07:32:14;;;;;;;6.50;4.78;;;;;;;36.75;33.58;99486.16;5090496;28;20195;-68
2022/06/02 07:35:00;;;;;;;4.85;4.50;;;;;;;36.92;33.03;99485.44;5090499;28;20198;-69
2022/06/02 07:37:40;;;;;;;6.55;4.90;;;;;;;36.78;33.16;99486.56;5090493;28;20199;-69
2022/06/02 07:40:29;;;;;;;7.05;4.65;;;;;;;36.90;32.00;99489.44;5090318;28;20198;-61
2022/06/02 07:43:31;;;;;;;5.28;4.78;;;;;;;35.93;33.15;99490.19;5090341;28;20211;-61
2022/06/02 07:46:21;;;;;;;5.60;4.45;;;;;;;35.69;33.80;99478.09;5090262;28;20233;-61
2022/06/02 07:49:14;;;;;;;7.20;5.00;;;;;;;36.25;32.83;99485.81;5087263;28;20197;-60
2022/06/02 07:51:47;;;;;;;5.57;4.80;;;;;;;36.69;32.20;99493.22;5090208;28;20552;-61
2022/06/02 07:54:27;;;;;;;6.68;4.88;;;;;;;37.46;31.27;99488.72;5090396;28;20634;-61
2022/06/02 07:57:07;;;;;;;9.15;5.22;;;;;;;37.49;30.84;99490.97;5090337;28;20198;-68
2022/06/02 07:59:54;;;;;;;6.95;5.25;;;;;;;38.05;30.39;99483.66;5090102;28;20204;-69
2022/06/02 08:02:52;;;;;;;4.68;4.20;;;;;;;38.78;28.80;99486.50;5090239;28;20194;-68
2022/06/02 08:05:32;;;;;;;8.25;4.63;;;;;;;38.90;28.54;99483.84;5081845;28;20248;-67
2022/06/02 08:08:02;;;;;;;5.63;4.30;;;;;;;39.13;28.41;99483.16;5089744;28;20202;-68
2022/06/02 08:10:41;;;;;;;4.70;4.28;;;;;;;39.47;28.17;99485.19;5090020;28;20730;-69
2022/06/02 08:13:14;;;;;;;5.72;4.57;;;;;;;39.55;28.08;99476.69;5090370;28;20209;-69
2022/06/02 08:15:51;;;;;;;5.65;5.05;;;;;;;39.80;27.87;99483.84;5089971;28;20205;-69
2022/06/02 08:18:47;;;;;;;5.85;4.85;;;;;;;39.29;28.37;99484.38;5089847;28;20198;-69
2022/06/02 08:21:25;;;;;;;5.30;4.80;;;;;;;39.71;28.28;99485.25;5089848;28;20286;-68
2022/06/02 08:24:19;;;;;;;6.30;5.15;;;;;;;38.48;29.28;99474.75;5089822;28;20279;-69
2022/06/02 08:26:56;;;;;;;4.78;4.38;;;;;;;38.91;28.74;99471.09;5089992;28;20197;-69
2022/06/02 08:29:39;;;;;;;4.75;4.35;;;;;;;38.72;29.09;99476.53;5089673;28;20199;-70
2022/06/02 08:32:26;;;;;;;9.27;4.72;;;;;;;38.45;29.99;99469.75;5090400;28;20567;-68
2022/06/02 08:35:04;;;;;;;8.13;5.68;;;;;;;37.12;31.00;99452.88;5093436;28;20691;-69
2022/06/02 08:37:44;;;;;;;5.22;4.82;;;;;;;37.47;30.99;99474.13;5093693;28;20194;-69
2022/06/02 08:40:35;;;;;;;7.95;4.40;;;;;;;37.45;30.31;99460.81;5093622;28;20290;-69
2022/06/02 08:43:34;;;;;;;5.05;4.55;;;;;;;37.38;30.89;99466.25;5090348;28;20217;-68
2022/06/02 08:46:29;;;;;;;5.30;4.13;;;;;;;37.06;30.50;99468.09;5093567;28;20234;-69
2022/06/02 08:49:30;;;;;;;4.75;4.43;;;;;;;36.97;30.87;99466.69;5093727;28;20588;-69
2022/06/02 08:52:38;;;;;;;6.35;4.10;;;;;;;37.05;30.98;99449.38;5090092;28;20692;-68
2022/06/02 08:55:45;;;;;;;4.60;4.22;;;;;;;37.35;30.71;99464.00;5093452;28;20303;-68
2022/06/02 08:59:07;;;;;;;6.38;4.35;;;;;;;37.40;30.56;99466.03;5093285;28;20197;-69
2022/06/02 09:01:59;;;;;;;4.47;4.07;;;;;;;37.26;30.05;99456.34;5093462;28;20198;-69
2022/06/02 09:04:55;;;;;;;5.35;4.80;;;;;;;37.00;30.54;99463.56;5093063;28;20226;-69
2022/06/02 09:07:48;;;;;;;4.85;4.45;;;;;;;36.77;31.01;99460.53;5074600;28;20207;-68
2022/06/02 09:10:41;;;;;;;10.60;7.25;;;;;;;36.61;31.04;99456.41;5093146;28;20702;-68
2022/06/02 09:13:38;;;;;;;5.05;4.55;;;;;;;36.15;31.40;99459.19;5093052;28;20292;-69
2022/06/02 09:16:20;;;;;;;4.35;4.05;;;;;;;36.24;31.10;99454.44;5093168;28;20233;-68
2022/06/02 09:19:25;;;;;;;4.65;4.22;;;;;;;36.47;31.15;99464.75;5092918;28;20201;-68
2022/06/02 09:22:23;;;;;;;5.35;3.90;;;;;;;36.49;30.38;99460.81;5092807;28;20199;-68
2022/06/02 09:24:58;;;;;;;4.47;3.58;;;;;;;36.47;30.25;99459.34;5092737;28;20234;-68
2022/06/02 09:28:03;;;;;;;7.35;3.90;;;;;;;36.28;30.98;99455.69;5092538;28;20241;-60
2022/06/02 09:30:42;;;;;;;5.47;4.95;;;;;;;36.04;31.53;99449.03;5092967;28;20195;-61
2022/06/02 09:33:37;;;;;;;4.80;4.22;;;;;;;35.96;32.31;99454.66;5092769;28;20195;-59
2022/06/02 09:36:37;;;;;;;5.20;4.35;;;;;;;36.13;31.81;99457.75;5092662;28;20260;-58
2022/06/02 09:39:20;;;;;;;8.30;4.22;;;;;;;35.68;32.59;99457.53;5092680;28;20195;-60
2022/06/02 09:42:02;;;;;;;4.93;4.00;;;;;;;35.67;32.75;99454.00;5092620;28;20697;-59
2022/06/02 09:44:41;;;;;;;4.93;4.30;;;;;;;35.35;32.99;99456.66;5091480;28;20219;-67
2022/06/02 09:47:33;;;;;;;4.65;4.25;;;;;;;35.47;32.72;99452.34;5092589;28;20606;-68
2022/06/02 09:50:28;;;;;;;5.15;4.47;;;;;;;35.45;33.17;99443.59;5092505;28;20213;-59
2022/06/02 09:53:27;;;;;;;4.90;4.60;;;;;;;35.12;32.95;99425.47;5092312;28;20202;-59
2022/06/02 09:56:19;;;;;;;5.03;4.60;;;;;;;35.70;32.77;99444.66;5089976;28;20274;-68
2022/06/02 09:58:57;;;;;;;5.97;5.15;;;;;;;36.27;32.04;99441.31;5088241;28;20200;-67
2022/06/02 10:01:37;;;;;;;5.75;5.03;;;;;;;36.65;31.54;99427.06;5089498;28;20544;-60
2022/06/02 10:04:37;;;;;;;6.10;4.32;;;;;;;36.60;31.29;99443.09;5087610;28;20218;-59
2022/06/02 10:07:29;;;;;;;4.85;4.32;;;;;;;36.25;31.20;99450.69;5089928;28;20199;-60
2022/06/02 10:10:18;;;;;;;5.75;4.32;;;;;;;35.85;31.02;99441.78;5090548;28;20202;-60
2022/06/02 10:13:13;;;;;;;5.15;4.63;;;;;;;35.22;32.13;99435.84;5088656;28;20645;-67
2022/06/02 10:15:54;;;;;;;4.95;4.53;;;;;;;34.98;32.95;99434.59;5087923;28;20191;-67
2022/06/02 10:18:50;;;;;;;7.03;4.30;;;;;;;34.63;32.71;99416.78;5088020;28;20660;-68
2022/06/02 10:21:28;;;;;;;5.93;4.10;;;;;;;34.59;33.05;99425.28;5069930;28;20198;-67
2022/06/02 10:24:29;;;;;;;4.50;4.07;;;;;;;34.55;32.94;99428.56;5090154;28;20620;-58
2022/06/02 10:27:08;;;;;;;5.53;3.97;;;;;;;34.57;32.64;99411.16;5090311;28;20715;-58
2022/06/02 10:30:20;;;;;;;4.15;3.95;;;;;;;34.44;32.99;99412.97;5090294;28;20286;-67
2022/06/02 10:33:16;;;;;;;5.78;3.75;;;;;;;34.24;33.21;99415.53;5088691;28;20191;-67
2022/06/02 10:36:16;;;;;;;7.47;5.15;;;;;;;34.14;33.45;99397.03;5088043;28;20191;-67
2022/06/02 10:38:58;;;;;;;5.30;4.20;;;;;;;33.75;33.40;99413.75;5086570;28;20191;-66
2022/06/02 10:41:43;;;;;;;4.43;3.80;;;;;;;33.56;33.79;99398.25;5087916;28;20201;-67
2022/06/02 10:44:15;;;;;;;5.38;3.88;;;;;;;33.67;33.95;99405.78;5088829;28;20218;-67
2022/06/02 10:47:26;;;;;;;4.10;3.80;;;;;;;33.43;33.83;99398.97;5087549;28;20709;-67
2022/06/02 10:50:08;;;;;;;4.60;3.58;;;;;;;33.55;33.98;99388.50;5089368;28;20717;-59
2022/06/02 10:53:15;;;;;;;8.77;4.28;;;;;;;33.60;33.12;99393.31;5089170;28;20222;-60
2022/06/02 10:56:20;;;;;;;5.25;4.07;;;;;;;33.63;33.26;99393.78;5087054;28;20194;-59
2022/06/02 10:59:23;;;;;;;5.03;4.53;;;;;;;33.48;33.45;99364.25;5088257;28;20195;-59
2022/06/02 11:02:27;;;;;;;5.35;4.25;;;;;;;33.63;33.34;99391.06;5087805;28;20183;-64
2022/06/02 11:05:33;;;;;;;6.25;4.95;;;;;;;33.37;33.21;99385.47;5088228;28;20226;-67
2022/06/02 11:08:37;;;;;;;5.40;3.92;;;;;;;33.38;32.77;99389.81;5086897;28;20198;-66
2022/06/02 11:11:40;;;;;;;4.63;4.22;;;;;;;32.98;33.45;99384.03;5088071;28;20685;-59
2022/06/02 11:14:36;;;;;;;4.13;3.80;;;;;;;33.07;34.00;99382.88;5088746;28;20233;-67
2022/06/02 11:17:42;;;;;;;4.47;4.22;;;;;;;33.07;34.60;99382.88;5087289;28;20183;-67
2022/06/02 11:20:26;;;;;;;6.80;4.93;;;;;;;33.16;34.71;99375.53;5086946;28;20197;-67
2022/06/02 11:23:30;;;;;;;5.88;5.28;;;;;;;33.15;34.35;99380.06;5088485;28;20290;-67
2022/06/02 11:26:25;;;;;;;4.78;4.30;;;;;;;33.14;33.88;99366.81;5090101;28;20283;-68
2022/06/02 11:29:18;;;;;;;4.60;4.20;;;;;;;33.10;33.72;99360.97;5088496;28;20199;-59
2022/06/02 11:32:16;;;;;;;8.05;4.53;;;;;;;33.24;33.70;99366.50;5086443;28;20192;-67
2022/06/02 11:35:16;;;;;;;5.97;4.85;;;;;;;33.37;34.04;99358.56;5086836;28;20695;-67
2022/06/02 11:38:18;;;;;;;5.25;4.68;;;;;;;33.52;34.11;99359.31;5065333;28;20195;-68
2022/06/02 11:41:12;;;;;;;5.60;4.65;;;;;;;33.58;33.25;99347.75;5069511;28;20204;-68
2022/06/02 11:43:52;;;;;;;4.68;4.28;;;;;;;33.50;33.69;99351.44;5070663;28;20204;-60
2022/06/02 11:46:51;;;;;;;7.35;4.15;;;;;;;33.33;34.54;99346.50;5087046;28;20587;-59
2022/06/02 11:49:39;;;;;;;6.45;4.65;;;;;;;33.35;33.82;99341.78;5088563;28;20191;-59
2022/06/02 11:52:37;;;;;;;5.65;4.82;;;;;;;33.35;33.71;99341.78;5087800;28;20227;-59
2022/06/02 11:55:28;;;;;;;7.00;4.80;;;;;;;33.55;33.93;99342.75;5088001;28;20183;-66
2022/06/02 11:58:43;;;;;;;5.20;4.70;;;;;;;33.31;33.69;99333.25;5087103;28;20264;-66
2022/06/02 12:01:40;;;;;;;5.07;4.68;;;;;;;33.58;33.86;99337.00;5088330;28;20199;-66
2022/06/02 12:04:36;;;;;;;4.65;4.20;;;;;;;33.51;33.66;99325.34;5064480;28;20261;-66
2022/06/02 12:07:45;;;;;;;10.82;9.80;;;;;;;33.22;34.52;99331.69;5088073;28;20579;-58
2022/06/02 12:10:38;;;;;;;6.30;5.80;;;;;;;33.19;35.19;99332.06;5092492;28;20195;-60
2022/06/02 12:13:27;;;;;;;9.68;5.63;;;;;;;33.31;35.25;99318.97;5092679;28;20201;-61
2022/06/02 12:16:28;;;;;;;5.28;4.78;;;;;;;33.29;34.17;99315.66;5093262;28;20195;-67
2022/06/02 12:19:35;;;;;;;7.90;4.97;;;;;;;33.15;34.24;99318.19;5082144;28;20195;-67
2022/06/02 12:22:20;;;;;;;5.07;4.57;;;;;;;33.22;34.61;99310.19;5059838;28;20210;-68
2022/06/02 12:25:11;;;;;;;8.77;4.93;;;;;;;33.47;33.92;99302.53;5090199;28;20221;-59
2022/06/02 12:28:06;;;;;;;7.25;4.25;;;;;;;33.53;33.45;99299.06;5092438;28;20201;-59
2022/06/02 12:30:49;;;;;;;5.45;4.10;;;;;;;33.70;32.88;99304.97;5093254;28;20199;-59
2022/06/02 12:33:36;;;;;;;5.85;4.22;;;;;;;33.54;32.94;99300.72;5092989;28;20192;-67
2022/06/02 12:36:38;;;;;;;4.78;4.45;;;;;;;33.46;33.42;99301.72;5091571;28;20215;-59
2022/06/02 12:39:48;;;;;;;5.35;4.30;;;;;;;33.47;33.95;99299.84;5081376;28;20194;-59
2022/06/02 12:42:44;;;;;;;4.32;3.92;;;;;;;33.59;32.79;99298.28;5091536;28;20562;-59
2022/06/02 12:45:38;;;;;;;4.85;4.40;;;;;;;33.64;32.79;99298.50;5072489;28;20222;-68
2022/06/02 12:48:34;;;;;;;6.68;4.45;;;;;;;33.71;32.65;99298.56;5093576;28;20278;-60
2022/06/02 12:51:19;;;;;;;4.57;4.07;;;;;;;33.68;32.31;99291.69;5090475;28;20242;-57
2022/06/02 12:54:18;;;;;;;4.45;4.15;;;;;;;33.66;31.97;99285.69;5093416;28;20295;-59
2022/06/02 12:57:20;;;;;;;5.28;3.88;;;;;;;33.54;32.19;99281.88;5079110;28;20286;-66
2022/06/02 13:00:19;;;;;;;6.57;4.75;;;;;;;33.71;33.13;99283.25;5093438;28;20195;-66
2022/06/02 13:03:27;;;;;;;4.63;4.15;;;;;;;33.72;32.76;99278.69;5093257;28;20236;-66
2022/06/02 13:06:37;;;;;;;4.63;4.22;;;;;;;33.80;32.16;99276.69;5093189;28;20215;-65